Time;durP1;ratioP1;P1;durP2;ratioP2;P2;SDS_P1;SDS_P2;PMS_P1;PMS_P2;Temp;Humidity;BMP_temperature;BMP_pressure;BME280_temperature;BME280_humidity;BME280_pressure;Samples;Min_cycle;Max_cycle;Signal;HPM_P1;HPM_P2
2021/05/22 00:00:49;;;;;;;1.30;1.00;;;11.00;99.70;;;;;;5049336;28;20474;-67
2021/05/22 00:03:15;;;;;;;1.30;0.90;;;11.00;99.70;;;;;;5048867;28;20559;-67
2021/05/22 00:05:42;;;;;;;1.23;0.90;;;11.00;99.70;;;;;;5052173;28;20957;-67
2021/05/22 00:08:08;;;;;;;1.40;1.00;;;11.10;99.70;;;;;;5052635;28;20443;-67
2021/05/22 00:10:34;;;;;;;1.60;1.20;;;11.10;99.70;;;;;;5062765;28;20470;-67
2021/05/22 00:13:01;;;;;;;1.20;0.90;;;11.00;99.70;;;;;;5072535;28;20453;-67
2021/05/22 00:15:28;;;;;;;1.30;0.90;;;11.00;99.70;;;;;;5072521;28;20499;-67
2021/05/22 00:17:54;;;;;;;1.20;0.90;;;11.00;99.70;;;;;;5072793;28;20481;-65
2021/05/22 00:20:20;;;;;;;1.30;1.00;;;10.90;99.70;;;;;;5072327;28;20682;-65
2021/05/22 00:22:46;;;;;;;1.50;1.00;;;10.90;99.70;;;;;;5071951;28;20438;-66
2021/05/22 00:25:14;;;;;;;2.50;1.17;;;11.00;99.70;;;;;;5072300;28;20960;-65
2021/05/22 00:27:40;;;;;;;1.57;1.03;;;11.00;99.70;;;;;;5057242;28;20440;-65
2021/05/22 00:30:09;;;;;;;1.57;1.00;;;10.90;99.70;;;;;;5052183;28;20825;-65
2021/05/22 00:32:36;;;;;;;1.40;1.10;;;10.90;99.70;;;;;;5052111;28;20448;-65
2021/05/22 00:35:03;;;;;;;1.40;1.10;;;10.90;99.70;;;;;;5052155;28;20451;-65
2021/05/22 00:37:29;;;;;;;2.30;1.50;;;10.90;99.70;;;;;;5052236;28;20903;-65
2021/05/22 00:39:55;;;;;;;1.47;1.10;;;11.00;99.70;;;;;;5052257;28;20494;-65
2021/05/22 00:42:23;;;;;;;1.20;0.87;;;10.80;99.70;;;;;;5052163;28;20468;-65
2021/05/22 00:45:08;;;;;;;2.13;1.00;;;10.70;99.70;;;;;;5071451;28;20447;-65
2021/05/22 00:47:35;;;;;;;1.30;1.10;;;10.70;99.70;;;;;;5072232;28;20457;-65
2021/05/22 00:50:01;;;;;;;2.03;1.07;;;10.70;99.70;;;;;;5072111;28;20442;-65
2021/05/22 00:52:28;;;;;;;1.83;1.10;;;10.80;99.70;;;;;;5071632;28;20913;-66
2021/05/22 00:54:54;;;;;;;1.33;1.00;;;10.70;99.70;;;;;;5063231;28;20446;-66
2021/05/22 00:57:21;;;;;;;1.30;1.10;;;10.70;99.70;;;;;;5051616;28;20490;-66
2021/05/22 00:59:48;;;;;;;2.03;1.20;;;10.70;99.70;;;;;;5051938;28;20481;-66
2021/05/22 01:02:21;;;;;;;1.20;0.90;;;10.70;99.70;;;;;;5051419;28;20468;-66
2021/05/22 01:04:48;;;;;;;1.90;1.00;;;10.80;99.70;;;;;;5051541;28;20443;-66
2021/05/22 01:07:14;;;;;;;1.50;1.00;;;10.80;99.70;;;;;;5051700;28;20456;-66
2021/05/22 01:09:41;;;;;;;1.70;1.10;;;10.70;99.70;;;;;;5063807;28;20492;-66
2021/05/22 01:12:10;;;;;;;1.20;1.00;;;10.70;99.70;;;;;;5070808;28;20903;-66
2021/05/22 01:14:42;;;;;;;1.30;1.00;;;10.70;99.70;;;;;;5071536;28;20511;-66
2021/05/22 01:17:08;;;;;;;1.40;0.87;;;10.70;99.70;;;;;;5071326;28;20530;-65
2021/05/22 01:19:41;;;;;;;1.60;1.37;;;10.70;99.70;;;;;;5071578;28;20447;-66
2021/05/22 01:22:07;;;;;;;2.20;1.30;;;10.70;99.70;;;;;;5071288;28;20506;-66
2021/05/22 01:24:42;;;;;;;1.30;1.10;;;10.60;99.70;;;;;;5068655;28;20461;-66
2021/05/22 01:27:10;;;;;;;1.73;1.10;;;10.60;99.70;;;;;;5051555;28;20444;-66
2021/05/22 01:29:37;;;;;;;1.40;1.00;;;10.60;99.70;;;;;;5051258;28;20505;-66
2021/05/22 01:32:03;;;;;;;1.20;1.00;;;10.60;99.70;;;;;;5051449;28;20470;-66
2021/05/22 01:34:29;;;;;;;1.60;1.03;;;10.50;99.70;;;;;;5050955;28;20443;-66
2021/05/22 01:36:55;;;;;;;1.40;1.20;;;10.60;99.70;;;;;;5051290;28;20451;-66
2021/05/22 01:39:22;;;;;;;1.20;1.00;;;10.50;99.70;;;;;;5051005;28;20867;-66
2021/05/22 01:41:48;;;;;;;1.30;0.90;;;10.50;99.70;;;;;;5060274;28;20467;-66
2021/05/22 01:44:15;;;;;;;1.70;0.93;;;10.60;99.70;;;;;;5070600;28;20442;-66
2021/05/22 01:46:43;;;;;;;1.20;0.90;;;10.60;99.70;;;;;;5071097;28;20666;-65
2021/05/22 01:49:12;;;;;;;1.30;1.00;;;10.60;99.70;;;;;;5070948;28;20447;-67
2021/05/22 01:51:40;;;;;;;1.27;0.93;;;10.50;99.70;;;;;;5070646;28;20555;-66
2021/05/22 01:54:09;;;;;;;2.47;1.23;;;10.50;99.70;;;;;;5070365;28;20939;-66
2021/05/22 01:56:36;;;;;;;1.30;1.00;;;10.60;99.70;;;;;;5070910;28;20945;-66
2021/05/22 01:59:03;;;;;;;1.30;1.10;;;10.60;99.70;;;;;;5068647;28;20478;-66
2021/05/22 02:01:30;;;;;;;1.73;1.10;;;10.60;99.70;;;;;;5070602;28;20471;-66
2021/05/22 02:04:03;;;;;;;1.43;1.03;;;10.70;99.70;;;;;;5068568;28;20431;-66
2021/05/22 02:06:34;;;;;;;1.40;1.07;;;10.70;99.70;;;;;;5070511;28;20443;-66
2021/05/22 02:09:03;;;;;;;1.30;1.10;;;10.60;99.70;;;;;;5070701;28;20462;-66
2021/05/22 02:11:32;;;;;;;1.40;1.17;;;10.60;99.70;;;;;;5069956;28;20841;-66
2021/05/22 02:14:02;;;;;;;1.20;1.10;;;10.70;99.70;;;;;;5070244;28;20442;-66
2021/05/22 02:16:31;;;;;;;1.43;1.00;;;10.70;99.70;;;;;;5068693;28;20543;-66
2021/05/22 02:19:00;;;;;;;2.47;1.20;;;10.60;99.70;;;;;;5070297;28;20497;-66
2021/05/22 02:21:29;;;;;;;2.10;1.20;;;10.60;99.70;;;;;;5070204;28;20459;-66
2021/05/22 02:23:55;;;;;;;1.60;1.20;;;10.60;99.70;;;;;;5069825;28;20890;-66
2021/05/22 02:26:22;;;;;;;1.97;1.00;;;10.60;99.70;;;;;;5070155;28;20443;-66
2021/05/22 02:28:50;;;;;;;1.53;1.00;;;10.60;99.70;;;;;;5069978;28;20817;-66
2021/05/22 02:31:18;;;;;;;1.43;1.17;;;10.60;99.70;;;;;;5067133;28;20467;-66
2021/05/22 02:33:46;;;;;;;1.33;1.10;;;10.50;99.70;;;;;;5049851;28;20455;-66
2021/05/22 02:36:13;;;;;;;1.97;1.10;;;10.40;99.70;;;;;;5050480;28;20456;-65
2021/05/22 02:38:44;;;;;;;1.40;1.10;;;10.60;99.70;;;;;;5050068;28;20533;-65
2021/05/22 02:41:11;;;;;;;1.87;1.20;;;10.60;99.70;;;;;;5050240;28;20467;-65
2021/05/22 02:43:40;;;;;;;2.83;1.20;;;10.50;99.70;;;;;;5050049;28;20447;-65
2021/05/22 02:46:06;;;;;;;1.73;1.10;;;10.50;99.70;;;;;;5050360;28;20443;-66
2021/05/22 02:48:36;;;;;;;1.70;1.43;;;10.60;99.70;;;;;;5050844;28;20466;-66
2021/05/22 02:51:06;;;;;;;1.40;1.10;;;10.50;99.70;;;;;;5050144;28;20846;-65
2021/05/22 02:53:35;;;;;;;1.30;1.17;;;10.50;99.70;;;;;;5049320;28;20452;-65
2021/05/22 02:56:03;;;;;;;1.20;1.00;;;10.40;99.70;;;;;;5050084;28;20451;-65
2021/05/22 02:58:31;;;;;;;1.27;1.00;;;10.30;99.70;;;;;;5049791;28;20574;-65
2021/05/22 03:00:57;;;;;;;1.83;1.20;;;10.20;99.70;;;;;;5049924;28;20888;-65
2021/05/22 03:03:24;;;;;;;1.77;1.00;;;10.10;99.70;;;;;;5049327;28;20439;-66
2021/05/22 03:05:50;;;;;;;5.70;1.30;;;10.00;99.70;;;;;;5060826;28;20820;-66
2021/05/22 03:08:17;;;;;;;1.20;1.00;;;9.90;99.70;;;;;;5069661;28;20435;-65
2021/05/22 03:10:43;;;;;;;5.33;1.30;;;10.00;99.70;;;;;;5069286;28;20947;-65
2021/05/22 03:13:10;;;;;;;3.57;1.30;;;10.00;99.70;;;;;;5069466;28;20438;-65
2021/05/22 03:15:36;;;;;;;1.30;0.97;;;9.90;99.70;;;;;;5069601;28;20504;-66
2021/05/22 03:18:02;;;;;;;1.40;1.10;;;9.80;99.70;;;;;;5069628;28;20584;-65
2021/05/22 03:20:28;;;;;;;1.30;1.00;;;9.90;99.70;;;;;;5069595;28;20521;-65
2021/05/22 03:22:54;;;;;;;2.67;1.20;;;10.00;99.70;;;;;;5053326;28;20970;-65
2021/05/22 03:25:22;;;;;;;1.20;0.90;;;10.10;99.70;;;;;;5049530;28;20467;-66
2021/05/22 03:27:48;;;;;;;8.30;1.23;;;9.90;99.70;;;;;;5049746;28;20440;-65
2021/05/22 03:30:15;;;;;;;1.53;1.10;;;9.90;99.70;;;;;;5049355;28;20440;-66
2021/05/22 03:32:41;;;;;;;1.70;1.00;;;9.80;99.70;;;;;;5049296;28;20444;-66
2021/05/22 03:35:09;;;;;;;2.47;1.10;;;9.70;99.70;;;;;;5049453;28;20443;-66
2021/05/22 03:37:35;;;;;;;2.07;1.27;;;9.60;99.70;;;;;;5049667;28;20974;-66
2021/05/22 03:40:01;;;;;;;1.27;1.10;;;9.60;99.70;;;;;;5052692;28;20824;-65
2021/05/22 03:42:28;;;;;;;2.13;1.20;;;9.60;99.70;;;;;;5053109;28;20459;-65
2021/05/22 03:44:54;;;;;;;1.60;1.10;;;9.40;99.70;;;;;;5053151;28;20443;-65
2021/05/22 03:47:20;;;;;;;1.30;1.10;;;9.60;99.70;;;;;;5053278;28;20461;-66
2021/05/22 03:49:46;;;;;;;1.20;0.93;;;9.60;99.70;;;;;;5053253;28;20448;-66
2021/05/22 03:52:13;;;;;;;1.33;1.00;;;9.50;99.70;;;;;;5052879;28;20901;-66
2021/05/22 03:54:39;;;;;;;1.40;1.10;;;9.70;99.70;;;;;;5053889;28;20443;-65
2021/05/22 03:57:05;;;;;;;1.60;1.10;;;9.70;99.70;;;;;;5069896;28;20512;-65
2021/05/22 03:59:32;;;;;;;1.50;0.90;;;9.80;99.70;;;;;;5073110;28;20477;-65
2021/05/22 04:01:58;;;;;;;1.33;1.17;;;9.70;99.70;;;;;;5072948;28;20492;-65
2021/05/22 04:04:24;;;;;;;1.57;1.10;;;9.60;99.70;;;;;;5072804;28;20449;-65
2021/05/22 04:06:51;;;;;;;1.30;0.90;;;9.60;99.70;;;;;;5072763;28;20458;-65
2021/05/22 04:09:17;;;;;;;1.50;0.93;;;9.50;99.70;;;;;;5072678;28;20835;-66
2021/05/22 04:11:43;;;;;;;1.30;1.00;;;9.50;99.70;;;;;;5052339;28;20471;-65
2021/05/22 04:14:09;;;;;;;1.40;1.10;;;9.60;99.70;;;;;;5052229;28;20440;-65
2021/05/22 04:16:36;;;;;;;1.33;1.00;;;9.60;99.70;;;;;;5052910;28;20942;-67
2021/05/22 04:19:03;;;;;;;3.43;1.23;;;9.70;99.70;;;;;;5052501;28;20487;-66
2021/05/22 04:21:29;;;;;;;2.80;1.00;;;9.70;99.70;;;;;;5052608;28;20524;-66
2021/05/22 04:23:56;;;;;;;1.50;1.10;;;9.80;99.70;;;;;;5051901;28;20444;-66
2021/05/22 04:26:22;;;;;;;1.40;1.00;;;9.90;99.70;;;;;;5053633;28;20863;-66
2021/05/22 04:28:48;;;;;;;1.50;1.00;;;10.10;99.70;;;;;;5052699;28;20462;-66
2021/05/22 04:31:14;;;;;;;1.30;1.10;;;10.00;99.70;;;;;;5052410;28;20470;-66
2021/05/22 04:33:42;;;;;;;1.63;1.20;;;10.00;99.70;;;;;;5052094;28;20448;-66
2021/05/22 04:36:08;;;;;;;1.40;0.93;;;10.10;99.70;;;;;;5052383;28;20462;-65
2021/05/22 04:38:35;;;;;;;1.90;1.00;;;10.00;99.70;;;;;;5052046;28;21087;-65
2021/05/22 04:41:01;;;;;;;1.40;1.10;;;9.90;99.70;;;;;;5052067;28;20842;-66
2021/05/22 04:43:27;;;;;;;1.20;0.90;;;9.90;99.70;;;;;;5053845;28;20455;-65
2021/05/22 04:45:54;;;;;;;2.90;1.20;;;9.80;99.70;;;;;;5052203;28;20450;-65
2021/05/22 04:48:20;;;;;;;1.40;1.07;;;9.70;99.70;;;;;;5052410;28;20440;-65
2021/05/22 04:50:47;;;;;;;2.73;1.00;;;9.90;99.70;;;;;;5051260;28;20483;-64
2021/05/22 04:53:13;;;;;;;2.90;1.20;;;9.90;99.70;;;;;;5051929;28;20961;-65
2021/05/22 04:55:39;;;;;;;1.20;0.90;;;9.80;99.70;;;;;;5051916;28;20446;-65
2021/05/22 04:58:06;;;;;;;1.47;1.07;;;9.60;99.70;;;;;;5052093;28;20475;-65
2021/05/22 05:00:32;;;;;;;1.50;1.00;;;9.50;99.70;;;;;;5064812;28;20850;-65
2021/05/22 05:02:58;;;;;;;1.43;1.20;;;9.50;99.70;;;;;;5072051;28;20443;-65
2021/05/22 05:05:25;;;;;;;1.20;1.00;;;9.90;99.70;;;;;;5071586;28;20438;-65
2021/05/22 05:07:52;;;;;;;1.20;0.90;;;10.10;99.70;;;;;;5072298;28;20543;-65
2021/05/22 05:10:18;;;;;;;1.20;0.87;;;10.30;99.70;;;;;;5071327;28;20443;-66
2021/05/22 05:12:45;;;;;;;2.47;1.00;;;10.10;99.70;;;;;;5072464;28;20445;-66
2021/05/22 05:15:12;;;;;;;1.30;1.00;;;10.10;99.70;;;;;;5071863;28;20447;-66
2021/05/22 05:17:38;;;;;;;1.40;1.10;;;10.10;99.70;;;;;;5053410;28;20444;-65
2021/05/22 05:20:05;;;;;;;2.40;1.27;;;10.10;99.70;;;;;;5051379;28;20447;-66
2021/05/22 05:22:32;;;;;;;1.30;1.00;;;10.00;99.70;;;;;;5051164;28;20443;-64
2021/05/22 05:24:59;;;;;;;3.50;1.70;;;9.80;99.70;;;;;;5051021;28;20448;-66
2021/05/22 05:27:25;;;;;;;3.23;1.20;;;9.70;99.70;;;;;;5051072;28;20444;-66
2021/05/22 05:29:51;;;;;;;1.27;1.00;;;10.00;99.70;;;;;;5051174;28;20570;-66
2021/05/22 05:32:18;;;;;;;1.67;1.20;;;10.20;99.70;;;;;;5052138;28;20462;-66
2021/05/22 05:34:44;;;;;;;1.30;0.97;;;10.30;99.70;;;;;;5050322;28;21445;-66
2021/05/22 05:37:11;;;;;;;2.80;1.40;;;10.50;99.70;;;;;;5050866;28;20826;-66
2021/05/22 05:39:37;;;;;;;1.40;1.10;;;10.50;99.70;;;;;;5051327;28;20506;-66
2021/05/22 05:42:05;;;;;;;1.53;1.17;;;10.40;99.70;;;;;;5050896;28;20831;-65
2021/05/22 05:44:31;;;;;;;1.30;0.90;;;10.40;99.70;;;;;;5050758;28;20451;-66
2021/05/22 05:46:57;;;;;;;1.70;0.97;;;10.50;99.70;;;;;;5051118;28;20836;-66
2021/05/22 05:49:28;;;;;;;1.60;1.10;;;10.60;99.70;;;;;;5067765;28;20446;-66
2021/05/22 05:51:55;;;;;;;4.73;1.40;;;10.60;99.70;;;;;;5070882;28;21001;-66
2021/05/22 05:54:21;;;;;;;2.60;1.27;;;10.60;99.70;;;;;;5070456;28;20477;-65
2021/05/22 05:56:47;;;;;;;3.63;1.20;;;10.60;99.70;;;;;;5070788;28;20454;-66
2021/05/22 05:59:14;;;;;;;1.50;1.20;;;10.70;99.70;;;;;;5070748;28;20495;-66
2021/05/22 06:01:40;;;;;;;1.80;1.30;;;10.80;99.70;;;;;;5068030;28;20464;-67
2021/05/22 06:04:07;;;;;;;3.30;1.60;;;10.90;99.70;;;;;;5050227;28;20439;-66
2021/05/22 06:06:34;;;;;;;2.47;1.40;;;11.10;99.70;;;;;;5050156;28;20943;-66
2021/05/22 06:09:02;;;;;;;2.10;1.50;;;11.20;99.70;;;;;;5050579;28;20470;-66
2021/05/22 06:11:30;;;;;;;2.80;1.37;;;11.40;99.70;;;;;;5050185;28;20468;-66
2021/05/22 06:13:56;;;;;;;1.67;1.23;;;11.60;99.70;;;;;;5050413;28;20443;-66
2021/05/22 06:16:27;;;;;;;2.17;1.03;;;11.90;99.70;;;;;;5050387;28;20440;-66
2021/05/22 06:18:53;;;;;;;1.60;1.10;;;12.60;99.70;;;;;;5059371;28;20528;-67
2021/05/22 06:21:20;;;;;;;1.60;1.10;;;13.00;99.70;;;;;;5069906;28;20536;-66
2021/05/22 06:23:47;;;;;;;1.73;1.30;;;13.20;99.70;;;;;;5069791;28;20455;-67
2021/05/22 06:26:14;;;;;;;1.80;1.20;;;13.20;99.70;;;;;;5069971;28;20447;-67
2021/05/22 06:28:40;;;;;;;1.70;1.27;;;13.10;99.70;;;;;;5070369;28;20443;-64
2021/05/22 06:31:07;;;;;;;1.30;1.00;;;13.70;99.70;;;;;;5070052;28;20493;-65
2021/05/22 06:33:34;;;;;;;1.60;1.20;;;14.20;99.70;;;;;;5070003;28;20454;-67
2021/05/22 06:36:01;;;;;;;2.10;1.23;;;14.70;99.70;;;;;;5067627;28;20438;-66
2021/05/22 06:38:27;;;;;;;1.90;1.10;;;15.10;99.70;;;;;;5069170;28;20570;-66
2021/05/22 06:40:54;;;;;;;1.40;1.17;;;16.20;99.70;;;;;;5068330;28;20474;-67
2021/05/22 06:43:20;;;;;;;2.80;1.33;;;16.50;99.70;;;;;;5069738;28;21078;-67
2021/05/22 06:45:56;;;;;;;1.60;1.30;;;16.90;98.40;;;;;;5070300;28;20443;-66
2021/05/22 06:48:22;;;;;;;1.70;1.10;;;16.90;97.40;;;;;;5069928;28;20541;-66
2021/05/22 06:50:50;;;;;;;1.50;1.27;;;17.30;96.00;;;;;;5069800;28;20470;-66
2021/05/22 06:53:16;;;;;;;3.43;1.30;;;17.80;94.70;;;;;;5067761;28;20947;-67
2021/05/22 06:55:42;;;;;;;2.20;1.23;;;18.50;91.30;;;;;;5069970;28;20980;-66
2021/05/22 06:58:10;;;;;;;2.47;1.40;;;18.80;91.30;;;;;;5069560;28;20478;-66
2021/05/22 07:00:36;;;;;;;2.20;1.20;;;17.70;94.40;;;;;;5069654;28;20519;-66
2021/05/22 07:03:02;;;;;;;4.57;1.30;;;17.70;94.20;;;;;;5069550;28;20442;-66
2021/05/22 07:05:29;;;;;;;2.10;1.30;;;18.00;92.70;;;;;;5070015;28;20945;-66
2021/05/22 07:07:56;;;;;;;3.00;1.20;;;17.00;95.00;;;;;;5063014;28;20471;-66
2021/05/22 07:10:22;;;;;;;2.93;1.30;;;16.20;96.80;;;;;;5065817;28;20453;-66
2021/05/22 07:12:48;;;;;;;4.37;1.50;;;16.00;98.10;;;;;;5049682;28;20442;-66
2021/05/22 07:15:14;;;;;;;1.93;1.20;;;15.30;99.40;;;;;;5058472;28;20444;-66
2021/05/22 07:17:41;;;;;;;2.20;1.43;;;15.00;99.70;;;;;;5065613;28;20831;-66
2021/05/22 07:20:08;;;;;;;3.00;1.60;;;14.60;99.70;;;;;;5072900;28;20442;-65
2021/05/22 07:22:34;;;;;;;1.90;1.20;;;14.40;99.70;;;;;;5073440;28;20439;-65
2021/05/22 07:25:01;;;;;;;2.83;1.37;;;14.20;99.70;;;;;;5069527;28;20837;-64
2021/05/22 07:27:28;;;;;;;2.67;1.40;;;14.00;99.70;;;;;;5061772;28;20446;-66
2021/05/22 07:29:54;;;;;;;6.40;1.40;;;14.20;99.70;;;;;;5066589;28;20470;-66
2021/05/22 07:32:20;;;;;;;1.77;1.27;;;14.30;99.70;;;;;;5066679;28;20463;-66
2021/05/22 07:34:47;;;;;;;1.90;1.20;;;14.50;99.70;;;;;;5053272;28;20946;-65
2021/05/22 07:37:13;;;;;;;1.67;1.10;;;14.30;99.70;;;;;;5053158;28;20458;-66
2021/05/22 07:39:39;;;;;;;1.70;1.10;;;14.30;99.70;;;;;;5053653;28;20483;-65
2021/05/22 07:42:07;;;;;;;2.37;1.43;;;14.10;99.50;;;;;;5052901;28;20468;-66
2021/05/22 07:44:33;;;;;;;1.77;1.10;;;13.90;99.70;;;;;;5052962;28;20832;-66
2021/05/22 07:46:59;;;;;;;3.87;1.87;;;14.40;99.70;;;;;;5052980;28;20450;-66
2021/05/22 07:49:37;;;;;;;4.73;1.20;;;14.60;98.60;;;;;;5053410;28;21106;-65
2021/05/22 07:52:03;;;;;;;2.70;1.30;;;14.70;99.40;;;;;;5052203;28;20483;-66
2021/05/22 07:54:29;;;;;;;2.13;1.20;;;14.90;99.10;;;;;;5057899;28;21015;-66
2021/05/22 07:56:56;;;;;;;2.90;1.27;;;15.00;99.20;;;;;;5071216;28;20453;-66
2021/05/22 07:59:23;;;;;;;1.50;1.10;;;14.90;99.50;;;;;;5071249;28;20470;-66
2021/05/22 08:01:49;;;;;;;1.77;1.30;;;14.90;98.40;;;;;;5069867;28;20455;-66
2021/05/22 08:04:15;;;;;;;1.57;1.20;;;14.70;96.80;;;;;;5057924;28;20447;-66
2021/05/22 08:06:41;;;;;;;1.40;1.00;;;14.80;95.70;;;;;;5072337;28;20447;-66
2021/05/22 08:09:07;;;;;;;1.40;1.00;;;14.70;98.00;;;;;;5072427;28;20447;-66
2021/05/22 08:11:34;;;;;;;1.37;1.00;;;14.70;98.20;;;;;;5072889;28;20462;-66
2021/05/22 08:14:00;;;;;;;2.53;1.30;;;14.70;96.70;;;;;;5072077;28;20439;-66
2021/05/22 08:16:27;;;;;;;1.63;1.10;;;14.60;93.90;;;;;;5066751;28;20455;-66
2021/05/22 08:18:53;;;;;;;1.70;1.10;;;14.30;94.20;;;;;;5052054;28;20471;-66
2021/05/22 08:21:22;;;;;;;1.50;1.10;;;14.40;95.40;;;;;;5052341;28;20471;-65
2021/05/22 08:23:49;;;;;;;2.53;1.20;;;14.50;95.50;;;;;;5052166;28;20795;-67
2021/05/22 08:26:15;;;;;;;1.30;1.00;;;14.50;92.50;;;;;;5051794;28;20447;-67
2021/05/22 08:28:41;;;;;;;3.50;1.73;;;14.50;93.10;;;;;;5052434;28;20447;-67
2021/05/22 08:31:07;;;;;;;2.70;1.27;;;14.50;92.30;;;;;;5052085;28;20471;-67
2021/05/22 08:33:34;;;;;;;1.53;1.00;;;14.50;92.40;;;;;;5062932;28;20458;-67
2021/05/22 08:36:01;;;;;;;2.03;1.20;;;14.60;93.80;;;;;;5072211;28;20470;-65
2021/05/22 08:38:27;;;;;;;1.40;1.00;;;14.70;93.80;;;;;;5072067;28;20483;-67
2021/05/22 08:40:53;;;;;;;1.97;1.17;;;14.60;94.90;;;;;;5072340;28;20467;-67
2021/05/22 08:43:19;;;;;;;1.40;1.03;;;14.80;93.70;;;;;;5071816;28;20635;-67
2021/05/22 08:45:46;;;;;;;3.00;1.20;;;15.00;93.00;;;;;;5072198;28;20446;-67
2021/05/22 08:48:14;;;;;;;1.60;0.93;;;15.20;94.50;;;;;;5071999;28;20888;-67
2021/05/22 08:50:41;;;;;;;3.50;1.20;;;15.10;92.70;;;;;;5070307;28;20529;-67
2021/05/22 08:53:08;;;;;;;1.67;1.10;;;15.20;90.90;;;;;;5071514;28;20457;-67
2021/05/22 08:55:34;;;;;;;1.70;1.10;;;15.30;92.90;;;;;;5072095;28;20447;-67
2021/05/22 08:58:00;;;;;;;1.40;1.10;;;15.00;91.70;;;;;;5071907;28;20453;-66
2021/05/22 09:00:27;;;;;;;1.83;1.10;;;15.00;93.40;;;;;;5071533;28;20472;-66
2021/05/22 09:02:54;;;;;;;4.60;1.30;;;15.00;94.10;;;;;;5071706;28;20447;-66
2021/05/22 09:05:25;;;;;;;1.30;1.00;;;14.70;92.90;;;;;;5069745;28;20450;-66
2021/05/22 09:07:54;;;;;;;2.07;1.10;;;15.00;91.70;;;;;;5071592;28;20442;-67
2021/05/22 09:10:23;;;;;;;2.20;1.00;;;15.10;90.50;;;;;;5071295;28;20438;-66
2021/05/22 09:12:51;;;;;;;1.87;1.07;;;15.10;89.60;;;;;;5071541;28;20455;-66
2021/05/22 09:15:19;;;;;;;1.50;1.07;;;15.10;91.40;;;;;;5071243;28;20474;-66
2021/05/22 09:17:49;;;;;;;1.57;0.97;;;15.10;89.50;;;;;;5071510;28;20923;-67
2021/05/22 09:20:21;;;;;;;1.57;1.17;;;15.10;90.60;;;;;;5071126;28;20466;-66
2021/05/22 09:23:04;;;;;;;2.20;1.20;;;15.30;90.00;;;;;;5061023;28;20787;-67
2021/05/22 09:25:31;;;;;;;1.97;1.10;;;15.20;87.50;;;;;;5051293;28;20448;-66
2021/05/22 09:27:58;;;;;;;2.87;1.20;;;15.20;87.60;;;;;;5051206;28;20443;-66
2021/05/22 09:30:26;;;;;;;2.97;1.17;;;15.20;87.10;;;;;;5051045;28;20458;-65
2021/05/22 09:32:53;;;;;;;5.10;1.10;;;15.30;87.40;;;;;;5050800;28;20443;-66
2021/05/22 09:35:21;;;;;;;1.60;1.03;;;15.90;87.30;;;;;;5051267;28;20444;-67
2021/05/22 09:37:49;;;;;;;1.60;1.10;;;16.60;85.80;;;;;;5049749;28;20439;-67
2021/05/22 09:40:18;;;;;;;1.30;1.00;;;16.60;82.80;;;;;;5065904;28;20479;-67
2021/05/22 09:42:45;;;;;;;1.70;1.10;;;17.00;86.00;;;;;;5070650;28;20451;-66
2021/05/22 09:45:22;;;;;;;1.50;1.00;;;16.90;84.70;;;;;;5070895;28;20454;-66
2021/05/22 09:47:49;;;;;;;1.40;1.00;;;16.70;82.60;;;;;;5070655;28;20446;-66
2021/05/22 09:50:30;;;;;;;1.40;1.03;;;16.70;83.10;;;;;;5070604;28;20446;-66
2021/05/22 09:52:56;;;;;;;1.50;1.10;;;17.10;84.00;;;;;;5070637;28;20438;-67
2021/05/22 09:55:23;;;;;;;1.63;1.10;;;18.10;82.70;;;;;;5069060;28;20443;-67
2021/05/22 09:57:51;;;;;;;1.60;1.10;;;19.20;80.00;;;;;;5070762;28;20604;-67
2021/05/22 10:00:19;;;;;;;1.87;1.20;;;19.50;79.00;;;;;;5069186;28;20569;-67
2021/05/22 10:02:47;;;;;;;2.37;1.00;;;19.00;79.90;;;;;;5068760;28;20453;-66
2021/05/22 10:05:16;;;;;;;1.50;1.10;;;19.20;77.70;;;;;;5058227;28;20504;-66
2021/05/22 10:07:43;;;;;;;1.97;1.20;;;19.00;80.20;;;;;;5051564;28;20443;-67
2021/05/22 10:10:10;;;;;;;1.43;1.17;;;19.10;79.60;;;;;;5056480;28;20436;-66
2021/05/22 10:12:39;;;;;;;2.80;1.10;;;18.60;78.10;;;;;;5057786;28;20447;-66
2021/05/22 10:15:07;;;;;;;1.33;1.00;;;18.40;78.50;;;;;;5049508;28;20458;-67
2021/05/22 10:17:33;;;;;;;1.57;1.00;;;18.40;79.60;;;;;;5050376;28;20448;-67
2021/05/22 10:20:00;;;;;;;2.00;1.20;;;18.30;79.70;;;;;;5050186;28;20480;-66
2021/05/22 10:22:26;;;;;;;1.87;1.10;;;18.10;78.40;;;;;;5050307;28;20463;-67
2021/05/22 10:24:54;;;;;;;1.30;1.03;;;18.00;79.30;;;;;;5054926;28;20561;-67
2021/05/22 10:27:21;;;;;;;1.53;1.00;;;18.00;81.10;;;;;;5055005;28;20525;-67
2021/05/22 10:29:48;;;;;;;2.10;1.23;;;17.40;79.10;;;;;;5061013;28;20882;-66
2021/05/22 10:32:21;;;;;;;2.43;1.13;;;17.30;79.00;;;;;;5059858;28;20687;-66
2021/05/22 10:34:49;;;;;;;2.13;1.40;;;17.00;80.30;;;;;;5052343;28;20817;-66
2021/05/22 10:37:38;;;;;;;1.37;1.00;;;16.90;82.80;;;;;;5060014;28;20530;-67
2021/05/22 10:40:05;;;;;;;2.60;1.30;;;16.80;83.70;;;;;;5058583;28;20566;-67
2021/05/22 10:42:47;;;;;;;1.30;1.07;;;16.80;83.40;;;;;;5058820;28;20455;-66
2021/05/22 10:45:26;;;;;;;1.50;1.10;;;16.80;84.00;;;;;;5059208;28;20447;-67
2021/05/22 10:47:54;;;;;;;1.80;1.20;;;16.70;82.70;;;;;;5059143;28;20742;-67
2021/05/22 10:50:34;;;;;;;2.70;1.20;;;16.70;83.50;;;;;;5058026;28;20934;-66
2021/05/22 10:53:28;;;;;;;2.27;1.30;;;16.00;82.80;;;;;;5058132;28;20447;-67
2021/05/22 10:56:07;;;;;;;1.40;1.10;;;15.90;82.40;;;;;;5060261;28;20546;-67
2021/05/22 10:58:34;;;;;;;1.90;1.10;;;15.90;85.40;;;;;;5054895;28;20851;-67
2021/05/22 11:01:30;;;;;;;1.50;1.00;;;16.20;86.00;;;;;;5049345;28;20847;-66
2021/05/22 11:04:28;;;;;;;1.80;1.20;;;16.00;84.70;;;;;;5049885;28;20499;-67
2021/05/22 11:06:56;;;;;;;1.63;1.10;;;16.30;85.30;;;;;;5049660;28;20477;-67
2021/05/22 11:09:42;;;;;;;1.50;1.10;;;16.50;85.40;;;;;;5049850;28;20444;-67
2021/05/22 11:12:42;;;;;;;3.83;2.47;;;16.60;86.00;;;;;;5052174;28;20464;-67
2021/05/22 11:15:42;;;;;;;1.40;1.00;;;16.40;85.60;;;;;;5049542;28;20444;-67
2021/05/22 11:18:11;;;;;;;1.53;1.10;;;16.40;85.70;;;;;;5049432;28;20436;-67
2021/05/22 11:20:38;;;;;;;1.30;1.10;;;16.10;87.50;;;;;;5067779;28;20467;-67
2021/05/22 11:23:04;;;;;;;1.50;1.20;;;16.20;85.20;;;;;;5052303;28;20517;-67
2021/05/22 11:25:48;;;;;;;1.50;1.03;;;16.30;84.20;;;;;;5049659;28;20488;-67
2021/05/22 11:28:19;;;;;;;1.37;1.10;;;16.30;84.20;;;;;;5063113;28;20537;-66
2021/05/22 11:30:48;;;;;;;2.47;1.00;;;16.40;83.20;;;;;;5060559;28;20517;-66
2021/05/22 11:33:31;;;;;;;1.87;1.20;;;16.30;81.20;;;;;;5058167;28;20443;-67
2021/05/22 11:36:12;;;;;;;1.33;1.10;;;16.50;82.50;;;;;;5058948;28;20443;-67
2021/05/22 11:38:39;;;;;;;1.30;1.00;;;16.60;82.40;;;;;;5059460;28;20479;-67
2021/05/22 11:41:14;;;;;;;1.50;1.13;;;16.50;83.60;;;;;;5058231;28;20820;-66
2021/05/22 11:43:42;;;;;;;3.10;1.30;;;16.60;81.30;;;;;;5060384;28;20431;-67
2021/05/22 11:46:14;;;;;;;1.20;0.90;;;16.70;82.00;;;;;;5059292;28;20443;-66
2021/05/22 11:48:43;;;;;;;2.00;1.10;;;16.70;80.40;;;;;;5058504;28;20486;-65
2021/05/22 11:51:19;;;;;;;2.73;1.27;;;16.60;81.50;;;;;;5057470;28;20538;-67
2021/05/22 11:53:51;;;;;;;3.00;1.20;;;16.90;81.30;;;;;;5058837;28;20872;-66
2021/05/22 11:56:18;;;;;;;2.07;1.10;;;16.70;82.60;;;;;;5062872;28;20450;-66
2021/05/22 11:58:47;;;;;;;3.83;1.10;;;16.80;83.60;;;;;;5069198;28;20483;-66
2021/05/22 12:01:16;;;;;;;1.20;0.97;;;16.40;81.10;;;;;;5070017;28;20505;-66
2021/05/22 12:03:44;;;;;;;1.83;1.30;;;16.20;80.50;;;;;;5061835;28;20942;-66
2021/05/22 12:06:20;;;;;;;1.70;1.20;;;16.20;80.80;;;;;;5061375;28;20435;-66
2021/05/22 12:09:01;;;;;;;1.33;1.03;;;16.40;82.30;;;;;;5063024;28;20451;-66
2021/05/22 12:11:30;;;;;;;1.40;1.00;;;16.70;82.70;;;;;;5060555;28;20508;-66
2021/05/22 12:13:58;;;;;;;1.40;1.00;;;16.90;81.20;;;;;;5063020;28;20496;-66
2021/05/22 12:16:26;;;;;;;1.60;1.13;;;16.90;79.80;;;;;;5058820;28;20440;-66
2021/05/22 12:18:54;;;;;;;1.53;1.10;;;16.80;81.30;;;;;;5063068;28;20474;-66
2021/05/22 12:21:29;;;;;;;1.87;1.10;;;17.10;78.30;;;;;;5052377;28;20561;-65
2021/05/22 12:24:06;;;;;;;1.80;1.40;;;17.00;78.60;;;;;;5049961;28;20898;-67
2021/05/22 12:26:32;;;;;;;1.60;1.10;;;16.60;81.20;;;;;;5052352;28;20439;-67
2021/05/22 12:28:58;;;;;;;1.73;1.00;;;16.60;80.90;;;;;;5052451;28;20444;-67
2021/05/22 12:31:25;;;;;;;1.60;1.20;;;16.60;80.50;;;;;;5051497;28;21013;-66
2021/05/22 12:34:04;;;;;;;3.07;1.30;;;16.60;79.50;;;;;;5051681;28;20962;-66
2021/05/22 12:36:30;;;;;;;1.30;1.07;;;16.90;80.50;;;;;;5052308;28;20457;-66
2021/05/22 12:38:57;;;;;;;1.40;1.10;;;16.70;82.00;;;;;;5051989;28;20490;-66
2021/05/22 12:41:39;;;;;;;1.30;1.00;;;16.60;77.60;;;;;;5052100;28;20508;-66
2021/05/22 12:44:09;;;;;;;1.20;1.00;;;16.40;78.30;;;;;;5059905;28;20443;-66
2021/05/22 12:46:37;;;;;;;1.30;1.10;;;16.20;80.10;;;;;;5073221;28;20451;-66
2021/05/22 12:49:15;;;;;;;1.30;1.00;;;16.40;82.10;;;;;;5072228;28;21038;-66
2021/05/22 12:51:43;;;;;;;1.50;1.10;;;16.50;80.80;;;;;;5071263;28;20478;-66
2021/05/22 12:54:30;;;;;;;1.30;1.00;;;16.40;81.00;;;;;;5071745;28;20455;-66